createdAt,value
2016-09-23T00:00:04.815Z,0
2016-09-23T00:01:04.785Z,0
2016-09-23T00:02:04.767Z,0
2016-09-23T00:03:04.747Z,0
2016-09-23T00:04:04.724Z,0
2016-09-23T00:05:04.700Z,0
2016-09-23T00:06:04.680Z,0
2016-09-23T00:07:04.657Z,0
2016-09-23T00:08:04.629Z,0
2016-09-23T00:09:04.609Z,0
2016-09-23T00:10:04.595Z,0
2016-09-23T00:11:04.566Z,0
2016-09-23T00:12:04.553Z,0
2016-09-23T00:13:04.519Z,0
2016-09-23T00:14:04.498Z,0
2016-09-23T00:15:04.478Z,0
2016-09-23T00:16:04.455Z,0
2016-09-23T00:17:04.430Z,0
2016-09-23T00:18:04.414Z,0
2016-09-23T00:19:04.397Z,0
2016-09-23T00:20:04.365Z,0
2016-09-23T00:21:04.349Z,0
2016-09-23T00:22:04.317Z,0
2016-09-23T00:23:04.303Z,0
2016-09-23T00:24:04.271Z,0
2016-09-23T00:25:04.256Z,0
2016-09-23T00:26:04.225Z,0
2016-09-23T00:27:04.501Z,0
2016-09-23T00:28:04.178Z,0
2016-09-23T00:29:04.169Z,0
2016-09-23T00:30:04.135Z,0
2016-09-23T00:31:04.113Z,0
2016-09-23T00:32:04.091Z,0
2016-09-23T00:33:04.060Z,0
2016-09-23T00:34:04.047Z,0
2016-09-23T00:35:04.021Z,0
2016-09-23T00:36:04.000Z,0
2016-09-23T00:37:03.982Z,0
2016-09-23T00:38:03.954Z,0
2016-09-23T00:39:03.935Z,0
2016-09-23T00:40:03.905Z,0
2016-09-23T00:41:03.885Z,0
2016-09-23T00:42:03.861Z,0
2016-09-23T00:43:03.838Z,0
2016-09-23T00:44:04.121Z,0
2016-09-23T00:45:03.797Z,0
2016-09-23T00:46:03.772Z,0
2016-09-23T00:47:03.756Z,0
2016-09-23T00:48:03.727Z,0
2016-09-23T00:49:03.699Z,0
2016-09-23T00:50:03.701Z,0
2016-09-23T00:51:03.654Z,0
2016-09-23T00:52:03.640Z,0
2016-09-23T00:53:03.620Z,0
2016-09-23T00:54:03.595Z,0
2016-09-23T00:55:03.559Z,0
2016-09-23T00:56:03.536Z,0
2016-09-23T00:57:03.811Z,0
2016-09-23T00:58:03.489Z,0
2016-09-23T00:59:03.469Z,0
2016-09-23T01:00:03.747Z,0
2016-09-23T01:01:03.429Z,0
2016-09-23T01:02:03.414Z,0
2016-09-23T01:03:03.387Z,0
2016-09-23T01:04:03.359Z,0
2016-09-23T01:05:03.335Z,0
2016-09-23T01:06:03.308Z,0
2016-09-23T01:07:03.282Z,0
2016-09-23T01:08:03.295Z,0
2016-09-23T01:09:03.239Z,0
2016-09-23T01:10:03.219Z,0
2016-09-23T01:11:03.194Z,0
2016-09-23T01:12:03.176Z,0
2016-09-23T01:13:03.148Z,0
2016-09-23T01:14:03.117Z,0
2016-09-23T01:15:03.097Z,0
2016-09-23T01:16:03.076Z,0
2016-09-23T01:17:03.051Z,0
2016-09-23T01:18:03.030Z,0
2016-09-23T01:19:03.012Z,0
2016-09-23T01:20:02.989Z,0
2016-09-23T01:21:02.967Z,0
2016-09-23T01:22:02.937Z,0
2016-09-23T01:23:02.909Z,0
2016-09-23T01:24:02.889Z,0
2016-09-23T01:25:02.861Z,0
2016-09-23T01:26:02.847Z,0
2016-09-23T01:27:02.823Z,0
2016-09-23T01:28:02.797Z,0
2016-09-23T01:29:02.780Z,0
2016-09-23T01:30:02.752Z,0
2016-09-23T01:31:02.737Z,0
2016-09-23T01:32:02.702Z,0
2016-09-23T01:33:02.684Z,0
2016-09-23T01:34:02.657Z,0
2016-09-23T01:35:02.642Z,0
2016-09-23T01:36:02.609Z,0
2016-09-23T01:37:02.587Z,0
2016-09-23T01:38:02.569Z,0
2016-09-23T01:39:02.536Z,0
2016-09-23T01:40:02.517Z,0
2016-09-23T01:41:02.489Z,0
2016-09-23T01:42:02.469Z,0
2016-09-23T01:43:02.450Z,0
2016-09-23T01:44:02.425Z,0
2016-09-23T01:45:02.701Z,0
2016-09-23T01:46:02.374Z,0
2016-09-23T01:47:02.360Z,0
2016-09-23T01:48:02.326Z,0
2016-09-23T01:49:02.313Z,0
2016-09-23T01:50:02.290Z,0
2016-09-23T01:51:02.263Z,0
2016-09-23T01:52:02.234Z,0
2016-09-23T01:53:02.214Z,0
2016-09-23T01:54:02.208Z,0
2016-09-23T01:55:02.164Z,0
2016-09-23T01:56:02.150Z,0
2016-09-23T01:57:02.128Z,0
2016-09-23T01:58:02.101Z,0
2016-09-23T01:59:02.069Z,0
2016-09-23T02:00:02.064Z,0
2016-09-23T02:01:02.025Z,0
2016-09-23T02:02:01.998Z,0
2016-09-23T02:03:01.989Z,0
2016-09-23T02:04:01.958Z,0
2016-09-23T02:05:01.937Z,0
2016-09-23T02:06:01.907Z,0
2016-09-23T02:07:01.886Z,0
2016-09-23T02:08:01.864Z,0
2016-09-23T02:09:01.840Z,0
2016-09-23T02:10:01.814Z,0
2016-09-23T02:11:01.784Z,0
2016-09-23T02:12:01.763Z,0
2016-09-23T02:13:01.740Z,0
2016-09-23T02:14:01.734Z,0
2016-09-23T02:15:01.692Z,0
2016-09-23T02:16:01.679Z,0
2016-09-23T02:17:01.648Z,0
2016-09-23T02:18:01.623Z,0
2016-09-23T02:19:01.603Z,0
2016-09-23T02:20:01.579Z,0
2016-09-23T02:21:01.553Z,0
2016-09-23T02:22:01.528Z,0
2016-09-23T02:23:01.521Z,0
2016-09-23T02:24:01.517Z,0
2016-09-23T02:25:01.451Z,0
2016-09-23T02:26:01.434Z,0
2016-09-23T02:27:01.409Z,0
2016-09-23T02:28:01.688Z,0
2016-09-23T02:29:01.369Z,0
2016-09-23T02:30:01.349Z,0
2016-09-23T02:31:01.317Z,0
2016-09-23T02:32:01.294Z,0
2016-09-23T02:33:01.271Z,0
2016-09-23T02:34:01.242Z,0
2016-09-23T02:35:01.222Z,0
2016-09-23T02:36:01.198Z,0
2016-09-23T02:37:01.185Z,0
2016-09-23T02:38:01.158Z,0
2016-09-23T02:39:01.133Z,0
2016-09-23T02:40:01.105Z,0
2016-09-23T02:41:01.075Z,0
2016-09-23T02:42:01.068Z,0
2016-09-23T02:43:01.033Z,0
2016-09-23T02:44:01.012Z,0
2016-09-23T02:45:00.985Z,0
2016-09-23T02:46:00.969Z,0
2016-09-23T02:47:00.948Z,0
2016-09-23T02:48:00.919Z,0
2016-09-23T02:49:00.893Z,0
2016-09-23T02:50:00.862Z,0
2016-09-23T02:51:00.847Z,0
2016-09-23T02:52:00.820Z,0
2016-09-23T02:53:00.803Z,0
2016-09-23T02:54:00.777Z,0
2016-09-23T02:55:00.755Z,0
2016-09-23T02:56:00.730Z,0
2016-09-23T02:57:01.007Z,0
2016-09-23T02:58:00.685Z,0
2016-09-23T02:59:00.651Z,0
2016-09-23T03:00:00.634Z,0
2016-09-23T03:01:00.610Z,0
2016-09-23T03:02:00.598Z,0
2016-09-23T03:03:00.563Z,0
2016-09-23T03:04:00.834Z,0
2016-09-23T03:05:00.520Z,0
2016-09-23T03:06:00.494Z,0
2016-09-23T03:07:00.469Z,0
2016-09-23T03:08:00.460Z,0
2016-09-23T03:09:00.426Z,0
2016-09-23T03:10:00.404Z,0
2016-09-23T03:11:00.670Z,0
2016-09-23T03:12:00.364Z,0
2016-09-23T03:13:00.346Z,0
2016-09-23T03:14:00.305Z,0
2016-09-23T03:15:00.302Z,0
2016-09-23T03:16:00.258Z,0
2016-09-23T03:17:00.239Z,0
2016-09-23T03:18:00.216Z,0
2016-09-23T03:19:00.189Z,0
2016-09-23T03:20:00.160Z,0
2016-09-23T03:21:00.146Z,0
2016-09-23T03:22:00.124Z,0
2016-09-23T03:23:00.099Z,0
2016-09-23T03:24:00.072Z,0
2016-09-23T03:25:00.337Z,0
2016-09-23T03:26:00.027Z,0
2016-09-23T03:27:00.006Z,0
2016-09-23T03:28:00.275Z,0
2016-09-23T03:28:59.955Z,0
2016-09-23T03:29:59.934Z,0
2016-09-23T03:30:59.910Z,0
2016-09-23T03:31:59.883Z,0
2016-09-23T03:32:59.861Z,0
2016-09-23T03:33:59.840Z,0
2016-09-23T03:34:59.815Z,0
2016-09-23T03:35:59.794Z,0
2016-09-23T03:36:59.766Z,0
2016-09-23T03:37:59.751Z,0
2016-09-23T03:38:59.718Z,0
2016-09-23T03:39:59.710Z,0
2016-09-23T03:40:59.677Z,0
2016-09-23T03:41:59.647Z,0
2016-09-23T03:42:59.626Z,0
2016-09-23T03:43:59.614Z,0
2016-09-23T03:44:59.588Z,0
2016-09-23T03:45:59.559Z,0
2016-09-23T03:46:59.535Z,0
2016-09-23T03:47:59.519Z,0
2016-09-23T03:48:59.486Z,0
2016-09-23T03:49:59.465Z,0
2016-09-23T03:50:59.438Z,0
2016-09-23T03:51:59.424Z,0
2016-09-23T03:52:59.430Z,0
2016-09-23T03:53:59.371Z,0
2016-09-23T03:54:59.646Z,0
2016-09-23T03:55:59.321Z,0
2016-09-23T03:56:59.298Z,0
2016-09-23T03:57:59.278Z,0
2016-09-23T03:58:59.247Z,0
2016-09-23T03:59:59.233Z,0
2016-09-23T04:00:59.206Z,0
2016-09-23T04:01:59.176Z,0
2016-09-23T04:02:59.155Z,0
2016-09-23T04:03:59.131Z,0
2016-09-23T04:04:59.107Z,0
2016-09-23T04:05:59.087Z,0
2016-09-23T04:06:59.057Z,0
2016-09-23T04:07:59.037Z,0
2016-09-23T04:08:59.025Z,0
2016-09-23T04:09:58.993Z,0
2016-09-23T04:10:58.967Z,0
2016-09-23T04:11:58.941Z,0
2016-09-23T04:12:58.924Z,0
2016-09-23T04:13:58.906Z,0
2016-09-23T04:14:58.871Z,0
2016-09-23T04:15:58.847Z,0
2016-09-23T04:16:58.824Z,0
2016-09-23T04:17:58.812Z,0
2016-09-23T04:18:58.777Z,0
2016-09-23T04:19:58.755Z,0
2016-09-23T04:20:58.737Z,0
2016-09-23T04:21:58.704Z,0
2016-09-23T04:22:58.687Z,0
2016-09-23T04:23:58.659Z,0
2016-09-23T04:24:58.639Z,0
2016-09-23T04:25:58.611Z,0
2016-09-23T04:26:58.591Z,0
2016-09-23T04:27:58.570Z,0
2016-09-23T04:28:58.545Z,0
2016-09-23T04:29:58.519Z,0
2016-09-23T04:30:58.491Z,0
2016-09-23T04:31:58.475Z,0
2016-09-23T04:32:58.451Z,0
2016-09-23T04:33:58.427Z,0
2016-09-23T04:34:58.404Z,0
2016-09-23T04:35:58.377Z,0
2016-09-23T04:36:58.353Z,0
2016-09-23T04:37:58.330Z,0
2016-09-23T04:38:58.301Z,0
2016-09-23T04:39:58.310Z,0
2016-09-23T04:40:58.261Z,0
2016-09-23T04:41:58.233Z,0
2016-09-23T04:42:58.211Z,0
2016-09-23T04:43:58.183Z,0
2016-09-23T04:44:58.167Z,0
2016-09-23T04:45:58.141Z,0
2016-09-23T04:46:58.125Z,0
2016-09-23T04:47:58.092Z,0
2016-09-23T04:48:58.062Z,0
2016-09-23T04:49:58.047Z,0
2016-09-23T04:50:58.018Z,0
2016-09-23T04:51:58.009Z,0
2016-09-23T04:52:58.004Z,0
2016-09-23T04:53:57.947Z,0
2016-09-23T04:54:57.927Z,0
2016-09-23T04:55:57.905Z,0
2016-09-23T04:56:57.883Z,0
2016-09-23T04:57:57.860Z,0
2016-09-23T04:58:57.832Z,0
2016-09-23T04:59:57.808Z,0
2016-09-23T05:00:57.781Z,0
2016-09-23T05:01:57.783Z,0
2016-09-23T05:02:57.740Z,0
2016-09-23T05:03:57.715Z,0
2016-09-23T05:04:57.687Z,0
2016-09-23T05:05:57.662Z,0
2016-09-23T05:06:57.646Z,5
2016-09-23T05:07:57.622Z,5
2016-09-23T05:08:57.593Z,5
2016-09-23T05:09:57.877Z,5
2016-09-23T05:10:57.544Z,5
2016-09-23T05:11:57.524Z,5
2016-09-23T05:12:57.499Z,10
2016-09-23T05:13:57.476Z,10
2016-09-23T05:14:57.457Z,10
2016-09-23T05:15:57.428Z,10
2016-09-23T05:16:57.402Z,15
2016-09-23T05:17:57.383Z,15
2016-09-23T05:18:57.356Z,15
2016-09-23T05:19:57.943Z,20
2016-09-23T05:20:57.450Z,20
2016-09-23T05:21:57.588Z,25
2016-09-23T05:22:57.254Z,25
2016-09-23T05:23:57.241Z,25
2016-09-23T05:24:57.216Z,30
2016-09-23T05:25:57.207Z,30
2016-09-23T05:26:57.158Z,35
2016-09-23T05:27:57.138Z,35
2016-09-23T05:28:57.115Z,40
2016-09-23T05:29:57.090Z,40
2016-09-23T05:30:57.068Z,45
2016-09-23T05:31:57.045Z,45
2016-09-23T05:32:57.024Z,50
2016-09-23T05:33:56.997Z,50
2016-09-23T05:34:56.970Z,55
2016-09-23T05:35:56.947Z,60
2016-09-23T05:36:56.928Z,60
2016-09-23T05:37:56.916Z,65
2016-09-23T05:38:56.873Z,70
2016-09-23T05:39:56.849Z,70
2016-09-23T05:40:56.831Z,75
2016-09-23T05:41:56.803Z,75
2016-09-23T05:42:56.819Z,80
2016-09-23T05:43:56.766Z,80
2016-09-23T05:44:56.744Z,85
2016-09-23T05:45:56.718Z,90
2016-09-23T05:46:56.687Z,90
2016-09-23T05:47:56.665Z,95
2016-09-23T05:48:56.633Z,100
2016-09-23T05:49:56.628Z,105
2016-09-23T05:50:56.592Z,110
2016-09-23T05:51:56.573Z,110
2016-09-23T05:52:56.541Z,115
2016-09-23T05:53:56.517Z,120
2016-09-23T05:54:56.502Z,120
2016-09-23T05:55:56.476Z,125
2016-09-23T05:56:56.450Z,125
2016-09-23T05:57:56.429Z,130
2016-09-23T05:58:56.397Z,135
2016-09-23T05:59:56.380Z,140
2016-09-23T06:00:56.356Z,140
2016-09-23T06:01:56.352Z,145
2016-09-23T06:02:56.609Z,150
2016-09-23T06:03:56.287Z,155
2016-09-23T06:04:56.267Z,160
2016-09-23T06:05:56.570Z,165
2016-09-23T06:06:56.214Z,170
2016-09-23T06:07:56.189Z,180
2016-09-23T06:08:56.190Z,185
2016-09-23T06:09:56.162Z,190
2016-09-23T06:10:56.139Z,195
2016-09-23T06:11:56.105Z,195
2016-09-23T06:12:56.071Z,200
2016-09-23T06:13:56.049Z,205
2016-09-23T06:14:56.043Z,210
2016-09-23T06:15:56.003Z,215
2016-09-23T06:16:55.985Z,215
2016-09-23T06:17:55.960Z,220
2016-09-23T06:18:55.938Z,225
2016-09-23T06:19:56.206Z,230
2016-09-23T06:20:55.892Z,235
2016-09-23T06:21:55.867Z,240
2016-09-23T06:22:55.852Z,240
2016-09-23T06:23:56.119Z,245
2016-09-23T06:24:55.795Z,245
2016-09-23T06:25:55.798Z,245
2016-09-23T06:26:55.751Z,245
2016-09-23T06:27:55.731Z,250
2016-09-23T06:28:55.707Z,255
2016-09-23T06:29:55.680Z,260
2016-09-23T06:30:55.660Z,265
2016-09-23T06:31:55.687Z,270
2016-09-23T06:32:55.623Z,275
2016-09-23T06:33:55.599Z,280
2016-09-23T06:34:55.569Z,285
2016-09-23T06:35:55.559Z,295
2016-09-23T06:36:55.827Z,295
2016-09-23T06:37:55.505Z,300
2016-09-23T06:38:55.493Z,305
2016-09-23T06:39:55.459Z,310
2016-09-23T06:40:55.441Z,330
2016-09-23T06:41:55.417Z,340
2016-09-23T06:42:55.397Z,360
2016-09-23T06:43:55.377Z,375
2016-09-23T06:44:55.348Z,400
2016-09-23T06:45:55.328Z,420
2016-09-23T06:46:55.308Z,445
2016-09-23T06:47:55.633Z,460
2016-09-23T06:48:55.266Z,460
2016-09-23T06:49:55.551Z,455
2016-09-23T06:50:55.220Z,460
2016-09-23T06:51:55.200Z,450
2016-09-23T06:52:55.180Z,445
2016-09-23T06:53:55.159Z,440
2016-09-23T06:54:55.749Z,430
2016-09-23T06:55:55.110Z,420
2016-09-23T06:56:55.096Z,410
2016-09-23T06:57:55.077Z,395
2016-09-23T06:58:55.064Z,380
2016-09-23T06:59:55.462Z,360
2016-09-23T07:00:55.005Z,345
2016-09-23T07:01:55.053Z,330
2016-09-23T07:02:54.967Z,310
2016-09-23T07:03:54.965Z,305
2016-09-23T07:04:55.222Z,300
2016-09-23T07:05:55.223Z,300
2016-09-23T07:06:54.892Z,300
2016-09-23T07:07:54.879Z,300
2016-09-23T07:08:54.839Z,305
2016-09-23T07:09:54.822Z,310
2016-09-23T07:10:54.801Z,320
2016-09-23T07:11:54.778Z,325
2016-09-23T07:12:54.771Z,330
2016-09-23T07:13:54.741Z,330
2016-09-23T07:14:54.761Z,335
2016-09-23T07:15:54.697Z,335
2016-09-23T07:16:54.693Z,335
2016-09-23T07:17:54.656Z,340
2016-09-23T07:18:54.634Z,345
2016-09-23T07:19:54.648Z,350
2016-09-23T07:20:54.683Z,355
2016-09-23T07:21:56.591Z,360
2016-09-23T07:22:55.194Z,365
2016-09-23T07:23:54.921Z,375
2016-09-23T07:24:54.554Z,385
2016-09-23T07:25:54.496Z,400
2016-09-23T07:26:54.471Z,415
2016-09-23T07:27:54.469Z,435
2016-09-23T07:28:54.496Z,455
2016-09-23T07:29:54.466Z,465
2016-09-23T07:30:54.388Z,470
2016-09-23T07:31:54.419Z,475
2016-09-23T07:32:54.692Z,485
2016-09-23T07:33:54.629Z,490
2016-09-23T07:34:54.795Z,490
2016-09-23T07:35:54.724Z,500
2016-09-23T07:36:54.296Z,505
2016-09-23T07:37:54.289Z,510
2016-09-23T07:38:54.672Z,515
2016-09-23T07:39:54.272Z,520
2016-09-23T07:40:54.202Z,530
2016-09-23T07:41:54.582Z,540
2016-09-23T07:42:54.139Z,555
2016-09-23T07:43:54.127Z,565
2016-09-23T07:44:54.159Z,575
2016-09-23T07:45:54.134Z,585
2016-09-23T07:46:54.065Z,590
2016-09-23T07:47:54.045Z,595
2016-09-23T07:48:54.149Z,585
2016-09-23T07:49:53.998Z,575
2016-09-23T07:50:53.988Z,565
2016-09-23T07:51:53.962Z,570
2016-09-23T07:52:54.032Z,560
2016-09-23T07:53:53.984Z,570
2016-09-23T07:54:53.900Z,580
2016-09-23T07:55:53.897Z,585
2016-09-23T07:56:54.226Z,585
2016-09-23T07:57:54.165Z,590
2016-09-23T07:58:53.823Z,585
2016-09-23T07:59:53.878Z,585
2016-09-23T08:00:53.895Z,595
2016-09-23T08:01:53.861Z,605
2016-09-23T08:02:54.169Z,610
2016-09-23T08:03:54.098Z,615
2016-09-23T08:04:53.792Z,625
2016-09-23T08:05:53.707Z,635
2016-09-23T08:06:53.673Z,640
2016-09-23T08:07:53.717Z,650
2016-09-23T08:08:53.649Z,655
2016-09-23T08:09:53.645Z,665
2016-09-23T08:10:53.967Z,680
2016-09-23T08:11:53.581Z,685
2016-09-23T08:12:53.563Z,690
2016-09-23T08:13:53.539Z,700
2016-09-23T08:14:53.521Z,705
2016-09-23T08:15:53.809Z,710
2016-09-23T08:16:53.945Z,725
2016-09-23T08:17:53.468Z,745
2016-09-23T08:18:53.450Z,760
2016-09-23T08:19:53.428Z,790
2016-09-23T08:20:53.773Z,830
2016-09-23T08:21:53.398Z,880
2016-09-23T08:22:53.398Z,915
2016-09-23T08:23:53.358Z,950
2016-09-23T08:24:53.340Z,970
2016-09-23T08:25:53.326Z,970
2016-09-23T08:26:53.315Z,955
2016-09-23T08:27:53.429Z,945
2016-09-23T08:28:53.273Z,930
2016-09-23T08:29:53.251Z,920
2016-09-23T08:30:53.240Z,920
2016-09-23T08:31:53.225Z,925
2016-09-23T08:32:53.202Z,925
2016-09-23T08:33:53.182Z,925
2016-09-23T08:34:53.169Z,925
2016-09-23T08:35:53.449Z,905
2016-09-23T08:36:53.134Z,895
2016-09-23T08:37:53.116Z,865
2016-09-23T08:38:53.104Z,810
2016-09-23T08:39:53.083Z,745
2016-09-23T08:40:53.073Z,705
2016-09-23T08:41:53.052Z,675
2016-09-23T08:42:53.030Z,655
2016-09-23T08:43:53.014Z,645
2016-09-23T08:44:52.997Z,630
2016-09-23T08:45:52.982Z,625
2016-09-23T08:46:52.968Z,640
2016-09-23T08:47:52.951Z,665
2016-09-23T08:48:52.931Z,705
2016-09-23T08:49:52.914Z,725
2016-09-23T08:50:52.894Z,740
2016-09-23T08:51:52.884Z,755
2016-09-23T08:52:52.863Z,760
2016-09-23T08:53:52.848Z,755
2016-09-23T08:54:52.836Z,740
2016-09-23T08:55:53.278Z,730
2016-09-23T08:56:53.400Z,720
2016-09-23T08:57:52.779Z,725
2016-09-23T08:58:52.767Z,735
2016-09-23T08:59:52.741Z,725
2016-09-23T09:00:52.738Z,725
2016-09-23T09:01:52.717Z,720
2016-09-23T09:02:52.697Z,700
2016-09-23T09:03:52.700Z,670
2016-09-23T09:04:52.663Z,640
2016-09-23T09:05:52.647Z,635
2016-09-23T09:06:52.628Z,640
2016-09-23T09:07:52.619Z,640
2016-09-23T09:08:52.594Z,640
2016-09-23T09:09:52.578Z,635
2016-09-23T09:10:53.612Z,635
2016-09-23T09:11:52.574Z,635
2016-09-23T09:12:52.543Z,650
2016-09-23T09:13:52.509Z,665
2016-09-23T09:14:52.495Z,685
2016-09-23T09:15:52.474Z,705
2016-09-23T09:16:52.459Z,715
2016-09-23T09:17:52.442Z,715
2016-09-23T09:18:52.438Z,710
2016-09-23T09:19:52.763Z,720
2016-09-23T09:20:52.394Z,745
2016-09-23T09:21:52.382Z,765
2016-09-23T09:22:52.360Z,835
2016-09-23T09:23:52.340Z,915
2016-09-23T09:24:52.323Z,1000
2016-09-23T09:25:52.308Z,1040
2016-09-23T09:26:52.290Z,1025
2016-09-23T09:27:52.273Z,980
2016-09-23T09:28:52.270Z,960
2016-09-23T09:29:52.252Z,940
2016-09-23T09:30:52.230Z,955
2016-09-23T09:31:52.205Z,980
2016-09-23T09:32:52.196Z,1025
2016-09-23T09:33:52.184Z,1025
2016-09-23T09:34:52.467Z,985
2016-09-23T09:35:52.459Z,940
2016-09-23T09:36:52.226Z,905
2016-09-23T09:37:52.189Z,885
2016-09-23T09:38:52.094Z,875
2016-09-23T09:39:52.196Z,870
2016-09-23T09:40:52.096Z,870
2016-09-23T09:41:52.100Z,865
2016-09-23T09:42:52.035Z,870
2016-09-23T09:43:52.113Z,885
2016-09-23T09:44:52.412Z,890
2016-09-23T09:45:52.407Z,890
2016-09-23T09:46:52.001Z,890
2016-09-23T09:47:52.081Z,905
2016-09-23T09:48:51.965Z,890
2016-09-23T09:49:51.933Z,865
2016-09-23T09:50:51.999Z,840
2016-09-23T09:51:51.919Z,795
2016-09-23T09:52:51.894Z,740
2016-09-23T09:53:51.873Z,700
2016-09-23T09:54:51.846Z,685
2016-09-23T09:55:51.831Z,690
2016-09-23T09:56:51.883Z,715
2016-09-23T09:57:51.807Z,710
2016-09-23T09:58:51.885Z,750
2016-09-23T09:59:52.353Z,760
2016-09-23T10:00:51.884Z,755
2016-09-23T10:01:52.146Z,740
2016-09-23T10:02:51.796Z,725
2016-09-23T10:03:52.139Z,720
2016-09-23T10:04:51.919Z,720
2016-09-23T10:05:52.014Z,720
2016-09-23T10:06:51.661Z,715
2016-09-23T10:07:51.647Z,715
2016-09-23T10:08:51.649Z,720
2016-09-23T10:09:51.616Z,710
2016-09-23T10:10:51.594Z,710
2016-09-23T10:11:51.593Z,715
2016-09-23T10:12:51.682Z,715
2016-09-23T10:13:51.579Z,720
2016-09-23T10:14:51.530Z,720
2016-09-23T10:15:51.673Z,720
2016-09-23T10:16:51.912Z,720
2016-09-23T10:17:51.549Z,720
2016-09-23T10:18:51.866Z,720
2016-09-23T10:19:51.460Z,715
2016-09-23T10:20:51.548Z,710
2016-09-23T10:21:51.505Z,705
2016-09-23T10:22:51.402Z,700
2016-09-23T10:23:51.436Z,705
2016-09-23T10:24:51.421Z,700
2016-09-23T10:25:51.353Z,705
2016-09-23T10:26:51.331Z,705
2016-09-23T10:27:51.315Z,705
2016-09-23T10:28:51.302Z,715
2016-09-23T10:29:51.280Z,735
2016-09-23T10:30:51.265Z,740
2016-09-23T10:31:51.249Z,750
2016-09-23T10:32:51.232Z,745
2016-09-23T10:33:51.211Z,745
2016-09-23T10:34:51.202Z,755
2016-09-23T10:35:51.181Z,765
2016-09-23T10:36:51.163Z,800
2016-09-23T10:37:51.153Z,835
2016-09-23T10:38:51.131Z,875
2016-09-23T10:39:51.115Z,935
2016-09-23T10:40:51.104Z,970
2016-09-23T10:41:51.083Z,1005
2016-09-23T10:42:51.065Z,1045
2016-09-23T10:43:51.046Z,1105
2016-09-23T10:44:51.036Z,1105
2016-09-23T10:45:51.014Z,1050
2016-09-23T10:46:51.012Z,1005
2016-09-23T10:47:51.000Z,1030
2016-09-23T10:48:50.963Z,1090
2016-09-23T10:49:50.956Z,1190
2016-09-23T10:50:50.938Z,1250
2016-09-23T10:51:50.986Z,1240
2016-09-23T10:52:50.908Z,1210
2016-09-23T10:53:51.488Z,1145
2016-09-23T10:54:51.719Z,1090
2016-09-23T10:55:52.554Z,1080
2016-09-23T10:56:52.170Z,1080
2016-09-23T10:57:52.400Z,1055
2016-09-23T10:58:52.409Z,1020
2016-09-23T10:59:52.160Z,975
2016-09-23T11:00:51.629Z,870
2016-09-23T11:01:52.001Z,870
2016-09-23T11:02:51.506Z,915
2016-09-23T11:03:50.884Z,935
2016-09-23T11:04:50.800Z,905
2016-09-23T11:05:51.967Z,845
2016-09-23T11:06:50.724Z,860
2016-09-23T11:07:51.560Z,890
2016-09-23T11:08:51.985Z,880
2016-09-23T11:09:51.907Z,905
2016-09-23T11:10:51.569Z,865
2016-09-23T11:11:51.433Z,765
2016-09-23T11:12:51.885Z,670
2016-09-23T11:13:52.234Z,580
2016-09-23T11:14:52.245Z,555
2016-09-23T11:15:51.889Z,545
2016-09-23T11:16:51.686Z,530
2016-09-23T11:17:51.608Z,520
2016-09-23T11:18:52.040Z,510
2016-09-23T11:19:52.145Z,495
2016-09-23T11:20:52.148Z,500
2016-09-23T11:21:51.532Z,505
2016-09-23T11:22:51.624Z,495
2016-09-23T11:23:51.595Z,495
2016-09-23T11:24:52.325Z,505
2016-09-23T11:25:51.569Z,515
2016-09-23T11:26:51.472Z,510
2016-09-23T11:27:51.344Z,505
2016-09-23T11:28:52.426Z,500
2016-09-23T11:29:51.405Z,515
2016-09-23T11:30:51.758Z,505
2016-09-23T11:31:52.088Z,510
2016-09-23T11:32:51.993Z,515
2016-09-23T11:33:51.439Z,520
2016-09-23T11:34:51.212Z,545
2016-09-23T11:35:51.736Z,640
2016-09-23T11:36:51.101Z,805
2016-09-23T11:37:52.177Z,915
2016-09-23T11:38:51.243Z,915
2016-09-23T11:39:51.101Z,915
2016-09-23T11:40:51.154Z,935
2016-09-23T11:41:51.236Z,925
2016-09-23T11:42:50.945Z,890
2016-09-23T11:43:51.145Z,785
2016-09-23T11:44:51.503Z,780
2016-09-23T11:45:51.182Z,795
2016-09-23T11:46:50.965Z,820
2016-09-23T11:47:50.703Z,830
2016-09-23T11:48:51.394Z,820
2016-09-23T11:49:51.319Z,800
2016-09-23T11:50:51.302Z,775
2016-09-23T11:51:51.168Z,775
2016-09-23T11:52:51.350Z,750
2016-09-23T11:53:51.041Z,780
2016-09-23T11:54:51.675Z,815
2016-09-23T11:55:51.139Z,810
2016-09-23T11:56:50.920Z,800
2016-09-23T11:57:50.722Z,780
2016-09-23T11:58:51.019Z,805
2016-09-23T11:59:50.800Z,815
2016-09-23T12:00:50.940Z,845
2016-09-23T12:01:51.674Z,915
2016-09-23T12:02:51.733Z,995
2016-09-23T12:03:50.568Z,970
2016-09-23T12:04:51.191Z,940
2016-09-23T12:05:51.712Z,915
2016-09-23T12:06:52.673Z,915
2016-09-23T12:07:51.188Z,920
2016-09-23T12:08:51.314Z,930
2016-09-23T12:09:50.878Z,1010
2016-09-23T12:10:50.745Z,1005
2016-09-23T12:11:50.759Z,955
2016-09-23T12:12:51.786Z,925
2016-09-23T12:13:50.740Z,790
2016-09-23T12:14:50.424Z,730
2016-09-23T12:15:51.473Z,700
2016-09-23T12:16:50.157Z,660
2016-09-23T12:17:50.642Z,620
2016-09-23T12:18:50.737Z,600
2016-09-23T12:19:51.121Z,575
2016-09-23T12:20:51.007Z,565
2016-09-23T12:21:51.071Z,560
2016-09-23T12:22:52.416Z,575
2016-09-23T12:23:53.359Z,590
2016-09-23T12:24:52.071Z,600
2016-09-23T12:25:50.440Z,625
2016-09-23T12:26:51.445Z,670
2016-09-23T12:27:50.914Z,705
2016-09-23T12:28:51.436Z,790
2016-09-23T12:29:50.833Z,855
2016-09-23T12:30:50.950Z,900
2016-09-23T12:31:50.490Z,925
2016-09-23T12:32:50.948Z,920
2016-09-23T12:33:50.757Z,860
2016-09-23T12:34:50.722Z,795
2016-09-23T12:35:51.335Z,780
2016-09-23T12:36:50.700Z,780
2016-09-23T12:37:50.866Z,765
2016-09-23T12:38:49.670Z,780
2016-09-23T12:39:50.872Z,785
2016-09-23T12:40:49.607Z,765
2016-09-23T12:41:50.478Z,735
2016-09-23T12:42:50.489Z,710
2016-09-23T12:43:50.160Z,695
2016-09-23T12:44:50.460Z,700
2016-09-23T12:45:50.490Z,685
2016-09-23T12:46:50.388Z,655
2016-09-23T12:47:50.280Z,655
2016-09-23T12:48:50.413Z,680
2016-09-23T12:49:50.737Z,730
2016-09-23T12:50:50.902Z,750
2016-09-23T12:51:50.682Z,840
2016-09-23T12:52:50.664Z,865
2016-09-23T12:53:50.171Z,810
2016-09-23T12:54:50.667Z,815
2016-09-23T12:55:50.624Z,800
2016-09-23T12:56:50.307Z,830
2016-09-23T12:57:50.604Z,810
2016-09-23T12:58:50.567Z,805
2016-09-23T12:59:50.183Z,810
2016-09-23T13:00:50.528Z,810
2016-09-23T13:01:50.983Z,835
2016-09-23T13:02:50.134Z,845
2016-09-23T13:03:48.845Z,840
2016-09-23T13:04:48.831Z,840
2016-09-23T13:05:48.814Z,855
2016-09-23T13:06:49.105Z,880
2016-09-23T13:07:48.792Z,935
2016-09-23T13:08:48.768Z,1005
2016-09-23T13:09:48.754Z,1075
2016-09-23T13:10:48.735Z,1090
2016-09-23T13:11:48.722Z,1110
2016-09-23T13:12:48.724Z,1155
2016-09-23T13:13:48.701Z,1185
2016-09-23T13:14:49.131Z,1170
2016-09-23T13:15:48.661Z,1185
2016-09-23T13:16:48.649Z,1125
2016-09-23T13:17:48.641Z,1075
2016-09-23T13:18:48.628Z,1060
2016-09-23T13:19:48.606Z,1105
2016-09-23T13:20:48.587Z,1130
2016-09-23T13:21:48.585Z,1140
2016-09-23T13:22:48.558Z,1110
2016-09-23T13:23:48.553Z,1110
2016-09-23T13:24:48.537Z,1085
2016-09-23T13:25:48.524Z,1095
2016-09-23T13:26:48.506Z,1060
2016-09-23T13:27:48.494Z,1045
2016-09-23T13:28:48.484Z,1025
2016-09-23T13:29:48.465Z,1000
2016-09-23T13:30:48.454Z,990
2016-09-23T13:31:48.519Z,990
2016-09-23T13:32:48.429Z,975
2016-09-23T13:33:48.412Z,965
2016-09-23T13:34:48.398Z,975
2016-09-23T13:35:48.390Z,1010
2016-09-23T13:36:48.368Z,1020
2016-09-23T13:37:48.365Z,1010
2016-09-23T13:38:48.379Z,980
2016-09-23T13:39:48.334Z,960
2016-09-23T13:40:48.615Z,960
2016-09-23T13:41:48.307Z,955
2016-09-23T13:42:48.290Z,950
2016-09-23T13:43:48.287Z,935
2016-09-23T13:44:48.568Z,915
2016-09-23T13:45:48.249Z,890
2016-09-23T13:46:48.237Z,865
2016-09-23T13:47:48.228Z,840
2016-09-23T13:48:48.214Z,835
2016-09-23T13:49:48.198Z,805
2016-09-23T13:50:48.179Z,725
2016-09-23T13:51:48.172Z,685
2016-09-23T13:52:48.152Z,625
2016-09-23T13:53:48.140Z,605
2016-09-23T13:54:48.133Z,610
2016-09-23T13:55:48.106Z,635
2016-09-23T13:56:48.100Z,640
2016-09-23T13:57:48.087Z,635
2016-09-23T13:58:48.075Z,635
2016-09-23T13:59:48.057Z,635
2016-09-23T14:00:48.044Z,660
2016-09-23T14:01:48.038Z,675
2016-09-23T14:02:48.010Z,680
2016-09-23T14:03:47.992Z,650
2016-09-23T14:04:47.984Z,660
2016-09-23T14:05:47.970Z,655
2016-09-23T14:06:47.943Z,650